createdAt,value
2017-09-18T00:01:03.314Z,7.13
2017-09-18T00:03:30.010Z,7.07
2017-09-18T00:05:56.431Z,6.37
2017-09-18T00:08:22.852Z,8.00
2017-09-18T00:10:49.309Z,6.70
2017-09-18T00:13:15.731Z,6.00
2017-09-18T00:15:42.140Z,6.67
2017-09-18T00:18:09.285Z,6.60
2017-09-18T00:20:36.476Z,6.00
2017-09-18T00:23:02.952Z,5.30
2017-09-18T00:25:30.863Z,7.17
2017-09-18T00:27:57.291Z,5.90
2017-09-18T00:30:23.726Z,5.80
2017-09-18T00:32:50.176Z,5.27
2017-09-18T00:35:16.610Z,5.73
2017-09-18T00:37:43.082Z,5.50
2017-09-18T00:40:10.992Z,5.23
2017-09-18T00:42:37.430Z,5.00
2017-09-18T00:45:03.850Z,5.40
2017-09-18T00:47:30.309Z,5.37
2017-09-18T00:49:56.759Z,5.37
2017-09-18T00:52:23.259Z,4.53
2017-09-18T00:54:49.774Z,4.20
2017-09-18T00:57:17.039Z,4.93
2017-09-18T00:59:43.495Z,4.70
2017-09-18T01:02:09.972Z,5.57
2017-09-18T01:04:37.906Z,4.73
2017-09-18T01:07:04.379Z,4.50
2017-09-18T01:09:31.583Z,4.40
2017-09-18T01:11:58.039Z,4.30
2017-09-18T01:14:24.483Z,4.83
2017-09-18T01:16:50.913Z,4.10
2017-09-18T01:19:17.367Z,6.43
2017-09-18T01:21:44.606Z,5.07
2017-09-18T01:24:11.086Z,4.57
2017-09-18T01:26:37.618Z,4.00
2017-09-18T01:29:04.010Z,5.00
2017-09-18T01:31:31.942Z,4.33
2017-09-18T01:33:58.377Z,4.60
2017-09-18T01:36:24.795Z,4.57
2017-09-18T01:38:51.206Z,4.80
2017-09-18T01:41:18.363Z,4.83
2017-09-18T01:43:45.076Z,4.83
2017-09-18T01:46:12.865Z,5.00
2017-09-18T01:48:40.214Z,6.93
2017-09-18T01:51:07.420Z,5.50
2017-09-18T01:53:35.873Z,4.47
2017-09-18T01:56:03.077Z,3.83
2017-09-18T01:58:30.570Z,4.33
2017-09-18T02:00:57.042Z,4.00
2017-09-18T02:03:23.549Z,4.30
2017-09-18T02:05:50.807Z,5.27
2017-09-18T02:08:17.234Z,4.40
2017-09-18T02:10:44.983Z,4.90
2017-09-18T02:13:11.947Z,5.17
2017-09-18T02:15:38.394Z,4.37
2017-09-18T02:18:04.794Z,4.30
2017-09-18T02:20:31.191Z,4.47
2017-09-18T02:22:59.094Z,4.03
2017-09-18T02:25:25.671Z,4.87
2017-09-18T02:27:53.025Z,3.57
2017-09-18T02:30:20.211Z,5.30
2017-09-18T02:32:47.351Z,4.07
2017-09-18T02:35:14.515Z,4.10
2017-09-18T02:37:41.678Z,3.80
2017-09-18T02:40:08.096Z,3.70
2017-09-18T02:42:35.286Z,3.53
2017-09-18T02:45:01.723Z,3.20
2017-09-18T02:47:28.151Z,3.50
2017-09-18T02:49:54.627Z,4.00
2017-09-18T02:52:22.531Z,4.10
2017-09-18T02:54:48.977Z,4.00
2017-09-18T02:57:15.419Z,3.57
2017-09-18T02:59:41.833Z,5.33
2017-09-18T03:02:08.282Z,4.43
2017-09-18T03:04:35.851Z,5.00
2017-09-18T03:07:02.267Z,5.40
2017-09-18T03:09:29.207Z,5.70
2017-09-18T03:11:55.614Z,3.90
2017-09-18T03:14:22.795Z,4.63
2017-09-18T03:16:49.286Z,3.87
2017-09-18T03:19:16.442Z,5.07
2017-09-18T03:21:43.644Z,4.27
2017-09-18T03:24:10.071Z,5.30
2017-09-18T03:26:36.511Z,4.97
2017-09-18T03:29:02.965Z,4.87
2017-09-18T03:31:29.418Z,5.40
2017-09-18T03:33:56.624Z,5.83
2017-09-18T03:36:23.064Z,5.47
2017-09-18T03:38:50.311Z,5.83
2017-09-18T03:41:16.810Z,5.20
2017-09-18T03:43:43.282Z,5.73
2017-09-18T03:46:09.720Z,5.80
2017-09-18T03:48:36.150Z,6.00
2017-09-18T03:51:02.591Z,6.07
2017-09-18T03:53:29.171Z,5.67
2017-09-18T03:55:57.047Z,5.10
2017-09-18T03:58:23.845Z,7.30
2017-09-18T04:00:51.070Z,6.77
2017-09-18T04:03:17.488Z,6.30
2017-09-18T04:05:43.979Z,7.63
2017-09-18T04:08:10.378Z,7.57
2017-09-18T04:10:36.844Z,7.17
2017-09-18T04:13:04.009Z,7.00
2017-09-18T04:15:30.566Z,6.37
2017-09-18T04:17:57.043Z,6.10
2017-09-18T04:20:23.593Z,9.67
2017-09-18T04:22:50.074Z,6.10
2017-09-18T04:25:16.492Z,5.77
2017-09-18T04:27:43.703Z,5.70
2017-09-18T04:30:10.118Z,5.47
2017-09-18T04:32:36.540Z,6.03
2017-09-18T04:35:02.988Z,5.43
2017-09-18T04:37:30.991Z,7.13
2017-09-18T04:39:58.684Z,6.50
2017-09-18T04:42:25.333Z,5.63
2017-09-18T04:44:51.821Z,6.10
2017-09-18T04:47:18.998Z,6.17
2017-09-18T04:49:45.433Z,5.50
2017-09-18T04:52:11.839Z,6.53
2017-09-18T04:54:39.023Z,7.07
2017-09-18T04:57:05.451Z,7.73
2017-09-18T04:59:31.944Z,6.60
2017-09-18T05:01:58.409Z,6.70
2017-09-18T05:04:26.798Z,6.10
2017-09-18T05:06:53.346Z,6.30
2017-09-18T05:09:19.835Z,5.83
2017-09-18T05:11:46.998Z,7.80
2017-09-18T05:14:13.451Z,7.40
2017-09-18T05:16:39.866Z,6.40
2017-09-18T05:19:07.019Z,6.40
2017-09-18T05:21:34.182Z,6.17
2017-09-18T05:24:00.718Z,6.30
2017-09-18T05:26:27.219Z,6.23
2017-09-18T05:28:53.741Z,6.07
2017-09-18T05:31:20.179Z,6.43
2017-09-18T05:33:48.107Z,6.50
2017-09-18T05:36:14.544Z,5.57
2017-09-18T05:38:40.979Z,6.77
2017-09-18T05:41:07.380Z,8.50
2017-09-18T05:43:34.598Z,7.23
2017-09-18T05:46:01.908Z,5.97
2017-09-18T05:48:28.477Z,7.73
2017-09-18T05:53:18.170Z,7.20
2017-09-18T05:55:45.497Z,6.73
2017-09-18T05:58:11.967Z,7.17
2017-09-18T06:00:39.296Z,7.60
2017-09-18T06:03:05.735Z,8.00
2017-09-18T06:05:32.180Z,7.37
2017-09-18T06:07:58.612Z,6.60
2017-09-18T06:10:25.360Z,7.60
2017-09-18T06:12:52.571Z,8.07
2017-09-18T06:15:19.013Z,6.87
2017-09-18T06:17:46.670Z,5.50
2017-09-18T06:20:13.406Z,5.90
2017-09-18T06:22:39.829Z,5.47
2017-09-18T06:25:06.297Z,5.17
2017-09-18T06:27:33.021Z,6.23
2017-09-18T06:29:59.537Z,5.77
2017-09-18T06:32:26.370Z,6.30
2017-09-18T06:34:52.834Z,6.70
2017-09-18T06:37:19.284Z,6.03
2017-09-18T06:39:46.649Z,8.07
2017-09-18T06:42:14.582Z,6.87
2017-09-18T06:44:41.298Z,9.80
2017-09-18T06:47:07.910Z,12.07
2017-09-18T06:49:34.658Z,20.90
2017-09-18T06:52:01.883Z,15.17
2017-09-18T06:54:28.482Z,9.13
2017-09-18T06:56:54.906Z,8.60
2017-09-18T06:59:21.327Z,8.83
2017-09-18T07:01:47.762Z,7.73
2017-09-18T07:04:14.207Z,6.90
2017-09-18T07:06:40.598Z,7.53
2017-09-18T07:09:07.038Z,10.10
2017-09-18T07:11:33.495Z,12.90
2017-09-18T07:13:59.968Z,10.50
2017-09-18T07:16:26.547Z,8.13
2017-09-18T07:18:53.019Z,7.43
2017-09-18T07:21:20.247Z,7.50
2017-09-18T07:23:47.408Z,6.37
2017-09-18T07:26:13.825Z,6.60
2017-09-18T07:28:41.006Z,5.40
2017-09-18T07:31:07.408Z,5.23
2017-09-18T07:33:35.418Z,5.23
2017-09-18T07:36:02.908Z,5.10
2017-09-18T07:38:29.703Z,6.10
2017-09-18T07:40:56.190Z,5.73
2017-09-18T07:43:22.656Z,5.47
2017-09-18T07:45:49.105Z,5.80
2017-09-18T07:48:15.521Z,5.17
2017-09-18T07:50:41.989Z,6.37
2017-09-18T07:53:09.000Z,5.47
2017-09-18T07:55:36.213Z,5.20
2017-09-18T07:58:02.964Z,4.83
2017-09-18T08:00:29.478Z,5.00
2017-09-18T08:02:55.963Z,5.77
2017-09-18T08:05:22.675Z,5.50
2017-09-18T08:07:49.150Z,3.83
2017-09-18T08:10:16.605Z,2.90
2017-09-18T08:12:43.280Z,5.87
2017-09-18T08:15:09.719Z,2.50
2017-09-18T08:17:36.132Z,1.90
2017-09-18T08:20:02.599Z,3.40
2017-09-18T08:22:29.374Z,2.43
2017-09-18T08:24:55.847Z,2.40
2017-09-18T08:27:22.415Z,2.13
2017-09-18T08:29:48.890Z,3.17
2017-09-18T08:32:15.327Z,2.00
2017-09-18T08:34:41.767Z,1.90
2017-09-18T08:37:08.220Z,1.97
2017-09-18T08:39:34.854Z,1.70
2017-09-18T08:42:02.983Z,2.77
2017-09-18T08:44:29.703Z,2.50
2017-09-18T08:46:56.144Z,2.73
2017-09-18T08:49:23.388Z,2.73
2017-09-18T08:51:49.900Z,2.27
2017-09-18T08:54:16.307Z,2.13
2017-09-18T08:56:42.741Z,3.13
2017-09-18T08:59:09.189Z,1.70
2017-09-18T09:01:35.794Z,1.70
2017-09-18T09:04:02.272Z,1.90
2017-09-18T09:06:28.771Z,2.27
2017-09-18T09:08:55.251Z,1.37
2017-09-18T09:11:21.744Z,1.37
2017-09-18T09:13:48.214Z,1.63
2017-09-18T09:16:14.663Z,1.63
2017-09-18T09:18:41.103Z,1.47
2017-09-18T09:21:08.284Z,1.70
2017-09-18T09:23:35.520Z,1.67
2017-09-18T09:26:03.782Z,1.40
2017-09-18T09:28:30.762Z,1.87
2017-09-18T09:30:58.199Z,1.87
2017-09-18T09:33:24.875Z,1.77
2017-09-18T09:35:52.261Z,1.73
2017-09-18T09:38:19.549Z,1.80
2017-09-18T09:40:46.387Z,1.90
2017-09-18T09:43:12.853Z,1.33
2017-09-18T09:45:39.345Z,1.80
2017-09-18T09:48:06.887Z,1.30
2017-09-18T09:50:34.588Z,1.63
2017-09-18T09:53:01.031Z,1.10
2017-09-18T09:55:28.576Z,1.50
2017-09-18T09:57:55.139Z,1.73
2017-09-18T10:00:21.567Z,1.40
2017-09-18T10:02:47.974Z,2.90
2017-09-18T10:05:14.404Z,1.53
2017-09-18T10:07:41.578Z,1.40
2017-09-18T10:10:08.972Z,1.47
2017-09-18T10:12:35.472Z,1.33
2017-09-18T10:15:01.946Z,1.60
2017-09-18T10:17:29.995Z,1.37
2017-09-18T10:19:57.235Z,1.77
2017-09-18T10:22:23.778Z,1.10
2017-09-18T10:24:50.184Z,1.10
2017-09-18T10:27:16.611Z,1.10
2017-09-18T10:29:43.079Z,1.17
2017-09-18T10:32:09.749Z,1.43
2017-09-18T10:34:36.227Z,1.30
2017-09-18T10:37:02.685Z,1.20
2017-09-18T10:39:29.431Z,1.57
2017-09-18T10:41:55.942Z,1.20
2017-09-18T10:44:22.666Z,1.50
2017-09-18T10:46:49.163Z,1.40
2017-09-18T10:49:15.634Z,1.33
2017-09-18T10:51:42.052Z,1.10
2017-09-18T10:54:08.514Z,0.97
2017-09-18T10:56:35.053Z,1.20
2017-09-18T10:59:01.531Z,1.10
2017-09-18T11:01:28.131Z,1.20
2017-09-18T11:03:54.611Z,0.90
2017-09-18T11:06:21.040Z,1.40
2017-09-18T11:08:47.471Z,1.13
2017-09-18T11:11:13.904Z,1.33
2017-09-18T11:13:40.408Z,1.03
2017-09-18T11:16:07.423Z,1.20
2017-09-18T11:18:34.552Z,1.37
2017-09-18T11:21:01.031Z,0.97
2017-09-18T11:23:27.609Z,1.23
2017-09-18T11:25:54.096Z,1.00
2017-09-18T11:28:20.539Z,1.40
2017-09-18T11:30:46.975Z,1.20
2017-09-18T11:33:13.420Z,1.53
2017-09-18T11:35:39.870Z,1.00
2017-09-18T11:38:06.557Z,1.30
2017-09-18T11:40:34.087Z,1.30
2017-09-18T11:43:00.555Z,1.00
2017-09-18T11:45:27.075Z,1.57
2017-09-18T11:47:53.538Z,1.03
2017-09-18T11:50:20.005Z,1.13
2017-09-18T11:52:46.506Z,6.53
2017-09-18T11:55:13.917Z,0.83
2017-09-18T11:57:40.517Z,1.00
2017-09-18T12:00:07.707Z,1.60
2017-09-18T12:02:35.178Z,1.20
2017-09-18T12:05:01.599Z,0.80
2017-09-18T12:07:28.995Z,1.30
2017-09-18T12:09:55.522Z,1.20
2017-09-18T12:12:22.680Z,0.97
2017-09-18T12:14:49.401Z,1.20
2017-09-18T12:17:16.590Z,1.30
2017-09-18T12:19:43.134Z,0.80
2017-09-18T12:22:10.331Z,1.43
2017-09-18T12:24:37.629Z,1.10
2017-09-18T12:27:04.090Z,1.10
2017-09-18T12:29:32.059Z,1.00
2017-09-18T12:31:59.288Z,1.00
2017-09-18T12:34:26.011Z,1.13
2017-09-18T12:36:52.444Z,1.10
2017-09-18T12:39:18.875Z,1.10
2017-09-18T12:41:45.314Z,1.40
2017-09-18T12:44:11.777Z,1.00
2017-09-18T12:46:39.793Z,1.13
2017-09-18T12:49:06.260Z,1.10
2017-09-18T12:51:32.860Z,0.97
2017-09-18T12:53:59.312Z,0.97
2017-09-18T12:56:25.796Z,1.03
2017-09-18T12:58:52.436Z,1.00
2017-09-18T13:01:19.034Z,1.00
2017-09-18T13:03:45.453Z,1.10
2017-09-18T13:06:11.892Z,1.10
2017-09-18T13:08:38.318Z,1.00
2017-09-18T13:11:04.751Z,1.00
2017-09-18T13:13:31.439Z,1.10
2017-09-18T13:15:59.232Z,1.10
2017-09-18T13:18:26.006Z,0.90
2017-09-18T13:20:52.554Z,1.00
2017-09-18T13:23:19.048Z,0.90
2017-09-18T13:25:45.537Z,1.00
2017-09-18T13:28:11.986Z,0.87
2017-09-18T13:30:38.399Z,1.30
2017-09-18T13:33:04.836Z,0.80
2017-09-18T13:35:32.165Z,0.90
2017-09-18T13:37:58.621Z,0.80
2017-09-18T13:40:25.252Z,0.90
2017-09-18T13:42:53.374Z,0.73
2017-09-18T13:45:19.912Z,1.10
2017-09-18T13:47:46.351Z,1.00
2017-09-18T13:50:12.777Z,1.03
2017-09-18T13:52:39.390Z,0.80
2017-09-18T13:55:05.924Z,0.93
2017-09-18T13:57:32.681Z,1.00
2017-09-18T13:59:59.126Z,0.80
2017-09-18T14:02:25.716Z,0.73
2017-09-18T14:04:52.142Z,0.70
2017-09-18T14:07:18.648Z,0.80
2017-09-18T14:09:45.107Z,0.83
2017-09-18T14:12:11.544Z,1.00
2017-09-18T14:14:38.378Z,0.80
2017-09-18T14:17:06.362Z,0.87
2017-09-18T14:19:32.961Z,1.27
2017-09-18T14:21:59.397Z,0.70
2017-09-18T14:24:26.839Z,0.80
2017-09-18T14:26:53.295Z,0.90
2017-09-18T14:29:19.704Z,1.40
2017-09-18T14:31:46.520Z,0.70
2017-09-18T14:34:13.815Z,0.80
2017-09-18T14:36:41.437Z,0.87
2017-09-18T14:39:08.109Z,0.90
2017-09-18T14:41:34.842Z,0.87
2017-09-18T14:44:01.430Z,0.70
2017-09-18T14:46:28.060Z,0.70
2017-09-18T14:48:56.673Z,0.80
2017-09-18T14:51:23.404Z,3.20
2017-09-18T14:53:49.939Z,0.90
2017-09-18T14:56:17.136Z,0.70
2017-09-18T14:58:43.586Z,0.80
2017-09-18T15:01:10.045Z,0.80
2017-09-18T15:03:37.711Z,0.80
2017-09-18T15:06:04.892Z,0.70
2017-09-18T15:08:32.232Z,0.90
2017-09-18T15:10:58.706Z,1.00
2017-09-18T15:13:25.187Z,0.80
2017-09-18T15:15:52.407Z,0.80
2017-09-18T15:18:18.870Z,0.73
2017-09-18T15:20:45.303Z,0.70
2017-09-18T15:23:11.755Z,0.70
2017-09-18T15:25:38.142Z,0.90
2017-09-18T15:28:04.602Z,0.70
2017-09-18T15:30:31.243Z,0.90
2017-09-18T15:32:58.471Z,1.03
2017-09-18T15:35:25.050Z,0.70
2017-09-18T15:37:51.490Z,0.97
2017-09-18T15:40:18.673Z,6.00
2017-09-18T15:42:45.085Z,1.00
2017-09-18T15:45:11.510Z,0.80
2017-09-18T15:47:38.691Z,0.70
2017-09-18T15:50:05.151Z,0.70
2017-09-18T15:52:31.733Z,0.90
2017-09-18T15:54:58.211Z,1.20
2017-09-18T15:57:25.518Z,0.97
2017-09-18T15:59:51.951Z,0.97
2017-09-18T16:02:19.488Z,0.90
2017-09-18T16:04:45.912Z,0.90
2017-09-18T16:07:12.370Z,0.90
2017-09-18T16:09:39.658Z,1.10
2017-09-18T16:12:06.121Z,1.37
2017-09-18T16:14:32.947Z,1.00
2017-09-18T16:16:59.410Z,1.00
2017-09-18T16:19:26.092Z,1.00
2017-09-18T16:21:52.560Z,1.40
2017-09-18T16:24:19.011Z,1.17
2017-09-18T16:26:45.492Z,1.30
2017-09-18T16:29:12.053Z,1.20
2017-09-18T16:31:38.613Z,1.37
2017-09-18T16:34:05.054Z,1.47
2017-09-18T16:36:31.615Z,1.00
2017-09-18T16:38:58.054Z,1.07
2017-09-18T16:41:25.458Z,1.30
2017-09-18T16:43:51.932Z,1.00
2017-09-18T16:46:18.355Z,1.80
2017-09-18T16:48:44.825Z,1.17
2017-09-18T16:51:11.271Z,3.30
2017-09-18T16:53:37.706Z,1.43
2017-09-18T16:56:04.138Z,2.87
2017-09-18T16:58:30.563Z,3.00
2017-09-18T17:00:58.127Z,2.17
2017-09-18T17:03:24.698Z,2.57
2017-09-18T17:05:51.150Z,3.00
2017-09-18T17:08:17.575Z,1.90
2017-09-18T17:10:44.002Z,1.87
2017-09-18T17:13:10.415Z,1.43
2017-09-18T17:15:36.851Z,2.90
2017-09-18T17:18:03.294Z,6.50
2017-09-18T17:20:30.166Z,6.63
2017-09-18T17:22:56.635Z,12.60
2017-09-18T17:25:23.220Z,6.60
2017-09-18T17:27:49.669Z,8.43
2017-09-18T17:30:16.837Z,2.60
2017-09-18T17:32:44.007Z,9.87
2017-09-18T17:35:10.419Z,6.80
2017-09-18T17:37:37.767Z,41.20
2017-09-18T17:40:05.586Z,9.90
2017-09-18T17:42:32.075Z,13.70
2017-09-18T17:44:58.518Z,7.03
2017-09-18T17:47:25.804Z,25.93
2017-09-18T17:49:52.252Z,8.30
2017-09-18T17:52:18.711Z,23.53
2017-09-18T17:54:45.904Z,15.80
2017-09-18T17:57:12.347Z,12.13
2017-09-18T17:59:38.778Z,6.03
2017-09-18T18:02:05.196Z,7.03
2017-09-18T18:04:31.621Z,5.13
2017-09-18T18:06:59.843Z,3.83
2017-09-18T18:09:26.369Z,6.73
2017-09-18T18:11:52.838Z,3.30
2017-09-18T18:14:19.251Z,2.57
2017-09-18T18:16:47.744Z,5.77
2017-09-18T18:19:14.180Z,3.30
2017-09-18T18:21:41.379Z,2.70
2017-09-18T18:24:07.823Z,6.70
2017-09-18T18:26:34.907Z,1.90
2017-09-18T18:29:01.382Z,7.30
2017-09-18T18:31:27.953Z,4.87
2017-09-18T18:33:54.435Z,4.10
2017-09-18T18:36:21.578Z,4.50
2017-09-18T18:38:48.058Z,3.47
2017-09-18T18:41:14.655Z,3.20
2017-09-18T18:43:41.136Z,3.50
2017-09-18T18:46:07.525Z,3.80
2017-09-18T18:48:35.686Z,3.17
2017-09-18T18:51:02.254Z,4.80
2017-09-18T18:53:28.666Z,4.10
2017-09-18T18:55:56.854Z,4.20
2017-09-18T18:58:23.416Z,3.20
2017-09-18T19:00:50.592Z,6.70
2017-09-18T19:03:17.056Z,3.50
2017-09-18T19:05:44.271Z,2.43
2017-09-18T19:08:10.766Z,2.00
2017-09-18T19:10:37.234Z,2.70
2017-09-18T19:13:03.683Z,2.33
2017-09-18T19:15:31.626Z,2.47
2017-09-18T19:17:58.099Z,2.67
2017-09-18T19:20:24.551Z,3.03
2017-09-18T19:22:51.032Z,3.13
2017-09-18T19:25:17.455Z,3.97
2017-09-18T19:27:44.043Z,3.40
2017-09-18T19:30:10.505Z,10.07
2017-09-18T19:32:36.930Z,10.13
2017-09-18T19:35:04.105Z,6.43
2017-09-18T19:37:31.981Z,7.37
2017-09-18T19:39:58.822Z,5.27
2017-09-18T19:42:25.260Z,4.20
2017-09-18T19:44:51.692Z,3.23
2017-09-18T19:47:18.121Z,2.60
2017-09-18T19:49:44.543Z,3.60
2017-09-18T19:52:10.956Z,3.30
2017-09-18T19:54:37.795Z,8.37
2017-09-18T19:57:04.267Z,7.73
2017-09-18T19:59:30.723Z,6.00
2017-09-18T20:01:57.204Z,3.90
2017-09-18T20:04:23.673Z,3.63
2017-09-18T20:06:50.143Z,3.77
2017-09-18T20:09:16.602Z,4.07
2017-09-18T20:11:43.193Z,4.00
2017-09-18T20:14:10.379Z,3.67
2017-09-18T20:16:37.558Z,3.80
2017-09-18T20:19:04.006Z,3.40
2017-09-18T20:21:30.543Z,2.70
2017-09-18T20:23:56.999Z,2.80
2017-09-18T20:26:23.580Z,3.60
2017-09-18T20:28:50.630Z,4.07
2017-09-18T20:31:17.071Z,2.77
2017-09-18T20:33:43.760Z,3.00
2017-09-18T20:36:10.318Z,2.93
2017-09-18T20:38:37.658Z,3.97
2017-09-18T20:41:05.078Z,3.00
2017-09-18T20:43:31.899Z,3.73
2017-09-18T20:45:58.393Z,3.30
2017-09-18T20:48:25.718Z,3.80
2017-09-18T20:50:53.194Z,4.57
2017-09-18T20:53:19.605Z,4.87
2017-09-18T20:55:46.221Z,7.93
2017-09-18T20:58:12.677Z,5.17
2017-09-18T21:00:39.075Z,10.67
2017-09-18T21:03:05.497Z,11.37
2017-09-18T21:05:32.854Z,13.17
2017-09-18T21:07:59.362Z,5.80
2017-09-18T21:10:26.011Z,4.87
2017-09-18T21:12:52.480Z,5.93
2017-09-18T21:15:20.029Z,5.10
2017-09-18T21:17:46.744Z,5.57
2017-09-18T21:20:13.808Z,4.87
2017-09-18T21:22:40.280Z,4.80
2017-09-18T21:25:08.882Z,3.47
2017-09-18T21:27:35.304Z,3.80
2017-09-18T21:30:01.792Z,5.40
2017-09-18T21:32:28.306Z,4.90
2017-09-18T21:34:54.767Z,3.83
2017-09-18T21:37:22.015Z,5.57
2017-09-18T21:39:48.469Z,3.50
2017-09-18T21:42:18.327Z,4.40
2017-09-18T21:44:44.755Z,5.07
2017-09-18T21:47:11.182Z,5.30
2017-09-18T21:49:37.594Z,4.10
2017-09-18T21:52:04.009Z,4.20
2017-09-18T21:54:30.425Z,4.63
2017-09-18T21:56:56.863Z,4.10
2017-09-18T21:59:24.211Z,3.70
2017-09-18T22:01:50.631Z,4.50
2017-09-18T22:04:17.796Z,4.70
2017-09-18T22:06:44.260Z,4.73
2017-09-18T22:09:10.702Z,5.37
2017-09-18T22:11:37.139Z,4.80
2017-09-18T22:14:03.540Z,4.53
2017-09-18T22:16:31.698Z,4.90
2017-09-18T22:18:58.126Z,4.93
2017-09-18T22:21:25.295Z,4.90
2017-09-18T22:23:51.705Z,5.00
2017-09-18T22:26:19.171Z,5.00
2017-09-18T22:28:45.583Z,4.63
2017-09-18T22:31:12.763Z,4.33
2017-09-18T22:33:39.151Z,5.00
2017-09-18T22:36:05.590Z,4.43
2017-09-18T22:38:32.308Z,5.00
2017-09-18T22:40:59.519Z,5.20
2017-09-18T22:43:25.927Z,3.70
2017-09-18T22:45:53.074Z,5.27
2017-09-18T22:48:20.237Z,5.20
2017-09-18T22:50:46.744Z,4.80
2017-09-18T22:53:13.167Z,4.90
2017-09-18T22:55:39.587Z,4.17
2017-09-18T22:58:05.986Z,4.50
2017-09-18T23:00:32.447Z,5.13
2017-09-18T23:02:58.899Z,4.73
2017-09-18T23:05:25.331Z,4.40
2017-09-18T23:07:53.247Z,4.67
2017-09-18T23:10:19.676Z,10.70
2017-09-18T23:12:47.536Z,5.07
2017-09-18T23:15:14.166Z,4.60
2017-09-18T23:17:40.619Z,8.10
2017-09-18T23:20:07.054Z,5.90
2017-09-18T23:22:34.122Z,8.80
2017-09-18T23:25:01.347Z,6.10
2017-09-18T23:27:28.084Z,5.70
2017-09-18T23:29:54.526Z,5.80
2017-09-18T23:32:21.149Z,5.43
2017-09-18T23:34:48.291Z,5.10
2017-09-18T23:37:15.476Z,4.57
2017-09-18T23:39:41.955Z,5.20
2017-09-18T23:42:09.914Z,4.57
2017-09-18T23:44:36.351Z,5.20
2017-09-18T23:47:02.770Z,4.80
2017-09-18T23:49:29.190Z,4.60
2017-09-18T23:51:56.304Z,4.50
2017-09-18T23:54:22.809Z,4.43
2017-09-18T23:56:50.015Z,4.20
2017-09-18T23:59:16.454Z,4.10
